sensor_id;sensor_type;location;lat;lon;timestamp;temperature;humidity
56300;DHT22;42209;6.376;-10.782;2023-02-13T00:01:10;23.20;45.00
56300;DHT22;42209;6.376;-10.782;2023-02-13T00:03:39;23.30;47.30
56300;DHT22;42209;6.376;-10.782;2023-02-13T00:06:08;23.50;49.10
56300;DHT22;42209;6.376;-10.782;2023-02-13T00:08:36;23.60;50.20
56300;DHT22;42209;6.376;-10.782;2023-02-13T00:11:05;23.50;45.20
56300;DHT22;42209;6.376;-10.782;2023-02-13T00:13:34;23.30;44.00
56300;DHT22;42209;6.376;-10.782;2023-02-13T00:16:02;23.10;43.40
56300;DHT22;42209;6.376;-10.782;2023-02-13T00:18:36;23.10;42.60
56300;DHT22;42209;6.376;-10.782;2023-02-13T00:21:07;23.00;42.30
56300;DHT22;42209;6.376;-10.782;2023-02-13T00:25:28;22.90;40.80
56300;DHT22;42209;6.376;-10.782;2023-02-13T00:27:56;23.10;42.90
56300;DHT22;42209;6.376;-10.782;2023-02-13T00:30:24;23.30;47.30
56300;DHT22;42209;6.376;-10.782;2023-02-13T00:32:53;23.40;44.40
56300;DHT22;42209;6.376;-10.782;2023-02-13T00:35:23;23.20;42.90
56300;DHT22;42209;6.376;-10.782;2023-02-13T00:37:51;23.10;42.30
56300;DHT22;42209;6.376;-10.782;2023-02-13T00:40:24;23.00;41.60
56300;DHT22;42209;6.376;-10.782;2023-02-13T00:42:52;22.90;41.10
56300;DHT22;42209;6.376;-10.782;2023-02-13T00:45:20;22.90;40.50
56300;DHT22;42209;6.376;-10.782;2023-02-13T00:47:48;22.90;40.00
56300;DHT22;42209;6.376;-10.782;2023-02-13T00:50:19;22.80;39.70
56300;DHT22;42209;6.376;-10.782;2023-02-13T00:52:48;22.80;39.30
56300;DHT22;42209;6.376;-10.782;2023-02-13T00:55:19;22.90;38.60
56300;DHT22;42209;6.376;-10.782;2023-02-13T00:57:47;22.90;38.30
56300;DHT22;42209;6.376;-10.782;2023-02-13T01:00:15;23.00;38.10
56300;DHT22;42209;6.376;-10.782;2023-02-13T01:02:43;22.90;37.50
56300;DHT22;42209;6.376;-10.782;2023-02-13T01:05:12;23.00;37.00
56300;DHT22;42209;6.376;-10.782;2023-02-13T01:07:41;23.00;36.60
56300;DHT22;42209;6.376;-10.782;2023-02-13T01:10:09;23.00;36.90
56300;DHT22;42209;6.376;-10.782;2023-02-13T01:12:37;23.10;39.40
56300;DHT22;42209;6.376;-10.782;2023-02-13T01:15:06;23.00;38.20
56300;DHT22;42209;6.376;-10.782;2023-02-13T01:17:34;22.90;37.90
56300;DHT22;42209;6.376;-10.782;2023-02-13T01:20:03;22.90;40.20
56300;DHT22;42209;6.376;-10.782;2023-02-13T01:22:31;23.20;44.80
56300;DHT22;42209;6.376;-10.782;2023-02-13T01:25:00;23.30;46.80
56300;DHT22;42209;6.376;-10.782;2023-02-13T01:27:30;23.40;47.70
56300;DHT22;42209;6.376;-10.782;2023-02-13T01:29:58;23.30;43.80
56300;DHT22;42209;6.376;-10.782;2023-02-13T01:32:26;23.20;42.90
56300;DHT22;42209;6.376;-10.782;2023-02-13T01:34:55;23.00;41.80
56300;DHT22;42209;6.376;-10.782;2023-02-13T01:37:23;22.90;41.20
56300;DHT22;42209;6.376;-10.782;2023-02-13T01:39:51;22.80;40.50
56300;DHT22;42209;6.376;-10.782;2023-02-13T01:42:27;22.80;40.20
56300;DHT22;42209;6.376;-10.782;2023-02-13T01:44:58;22.80;39.70
56300;DHT22;42209;6.376;-10.782;2023-02-13T01:47:37;22.70;39.20
56300;DHT22;42209;6.376;-10.782;2023-02-13T01:50:15;22.70;38.90
56300;DHT22;42209;6.376;-10.782;2023-02-13T01:52:52;22.70;38.30
56300;DHT22;42209;6.376;-10.782;2023-02-13T01:55:23;22.70;38.10
56300;DHT22;42209;6.376;-10.782;2023-02-13T01:58:01;22.70;38.00
56300;DHT22;42209;6.376;-10.782;2023-02-13T02:00:30;22.80;37.30
56300;DHT22;42209;6.376;-10.782;2023-02-13T02:03:04;22.80;37.30
56300;DHT22;42209;6.376;-10.782;2023-02-13T02:05:35;22.90;37.20
56300;DHT22;42209;6.376;-10.782;2023-02-13T02:08:06;23.00;38.90
56300;DHT22;42209;6.376;-10.782;2023-02-13T02:10:37;23.00;38.80
56300;DHT22;42209;6.376;-10.782;2023-02-13T02:13:16;22.90;38.20
56300;DHT22;42209;6.376;-10.782;2023-02-13T02:15:45;22.90;39.10
56300;DHT22;42209;6.376;-10.782;2023-02-13T02:18:19;23.00;44.70
56300;DHT22;42209;6.376;-10.782;2023-02-13T02:21:24;23.20;47.10
56300;DHT22;42209;6.376;-10.782;2023-02-13T02:24:10;23.30;49.20
56300;DHT22;42209;6.376;-10.782;2023-02-13T02:27:07;23.50;50.50
56300;DHT22;42209;6.376;-10.782;2023-02-13T02:30:10;23.60;51.30
56300;DHT22;42209;6.376;-10.782;2023-02-13T02:32:50;23.60;46.30
56300;DHT22;42209;6.376;-10.782;2023-02-13T02:35:51;23.30;44.90
56300;DHT22;42209;6.376;-10.782;2023-02-13T02:38:46;23.10;43.90
56300;DHT22;42209;6.376;-10.782;2023-02-13T02:44:41;22.80;41.90
56300;DHT22;42209;6.376;-10.782;2023-02-13T02:49:43;22.70;40.70
56300;DHT22;42209;6.376;-10.782;2023-02-13T02:52:20;22.70;40.30
56300;DHT22;42209;6.376;-10.782;2023-02-13T02:55:14;22.70;39.90
56300;DHT22;42209;6.376;-10.782;2023-02-13T02:58:01;22.70;39.50
56300;DHT22;42209;6.376;-10.782;2023-02-13T03:00:43;22.70;38.90
56300;DHT22;42209;6.376;-10.782;2023-02-13T03:03:22;22.70;38.40
56300;DHT22;42209;6.376;-10.782;2023-02-13T03:05:52;22.70;37.80
56300;DHT22;42209;6.376;-10.782;2023-02-13T03:08:21;22.80;37.70
56300;DHT22;42209;6.376;-10.782;2023-02-13T03:10:49;22.80;37.00
56300;DHT22;42209;6.376;-10.782;2023-02-13T03:13:43;22.80;37.00
56300;DHT22;42209;6.376;-10.782;2023-02-13T03:16:18;22.90;40.00
56300;DHT22;42209;6.376;-10.782;2023-02-13T03:18:52;23.10;44.50
56300;DHT22;42209;6.376;-10.782;2023-02-13T03:24:24;23.30;48.80
56300;DHT22;42209;6.376;-10.782;2023-02-13T03:27:10;23.40;49.90
56300;DHT22;42209;6.376;-10.782;2023-02-13T03:30:03;23.60;49.40
56300;DHT22;42209;6.376;-10.782;2023-02-13T03:32:36;23.50;45.20
56300;DHT22;42209;6.376;-10.782;2023-02-13T03:37:59;23.20;49.60
56300;DHT22;42209;6.376;-10.782;2023-02-13T03:40:56;23.40;52.30
56300;DHT22;42209;6.376;-10.782;2023-02-13T03:43:31;23.50;52.30
56300;DHT22;42209;6.376;-10.782;2023-02-13T03:46:02;23.60;48.40
56300;DHT22;42209;6.376;-10.782;2023-02-13T03:48:35;23.40;46.60
56300;DHT22;42209;6.376;-10.782;2023-02-13T03:51:06;23.10;45.20
56300;DHT22;42209;6.376;-10.782;2023-02-13T03:53:37;23.00;44.50
56300;DHT22;42209;6.376;-10.782;2023-02-13T03:56:08;22.90;43.40
56300;DHT22;42209;6.376;-10.782;2023-02-13T03:58:41;22.90;42.70
56300;DHT22;42209;6.376;-10.782;2023-02-13T04:01:15;22.70;42.10
56300;DHT22;42209;6.376;-10.782;2023-02-13T04:03:51;22.70;41.50
56300;DHT22;42209;6.376;-10.782;2023-02-13T04:08:53;22.70;40.50
56300;DHT22;42209;6.376;-10.782;2023-02-13T04:14:09;22.60;39.60
56300;DHT22;42209;6.376;-10.782;2023-02-13T04:16:42;22.60;39.20
56300;DHT22;42209;6.376;-10.782;2023-02-13T04:19:13;22.50;39.00
56300;DHT22;42209;6.376;-10.782;2023-02-13T04:21:42;22.50;38.40
56300;DHT22;42209;6.376;-10.782;2023-02-13T04:24:10;22.50;38.20
56300;DHT22;42209;6.376;-10.782;2023-02-13T04:26:41;22.50;38.00
56300;DHT22;42209;6.376;-10.782;2023-02-13T04:29:10;22.50;38.00
56300;DHT22;42209;6.376;-10.782;2023-02-13T04:31:38;22.50;37.90
56300;DHT22;42209;6.376;-10.782;2023-02-13T04:34:06;22.50;38.00
56300;DHT22;42209;6.376;-10.782;2023-02-13T04:36:35;22.60;37.60
56300;DHT22;42209;6.376;-10.782;2023-02-13T04:39:03;22.50;37.30
56300;DHT22;42209;6.376;-10.782;2023-02-13T04:41:31;22.60;37.10
56300;DHT22;42209;6.376;-10.782;2023-02-13T04:44:00;22.60;36.70
56300;DHT22;42209;6.376;-10.782;2023-02-13T04:46:28;22.60;36.20
56300;DHT22;42209;6.376;-10.782;2023-02-13T04:48:56;22.70;37.40
56300;DHT22;42209;6.376;-10.782;2023-02-13T04:51:24;22.70;41.00
56300;DHT22;42209;6.376;-10.782;2023-02-13T04:53:53;22.90;44.70
56300;DHT22;42209;6.376;-10.782;2023-02-13T04:56:21;23.00;47.10
56300;DHT22;42209;6.376;-10.782;2023-02-13T04:58:49;23.20;49.10
56300;DHT22;42209;6.376;-10.782;2023-02-13T05:01:17;23.30;50.40
56300;DHT22;42209;6.376;-10.782;2023-02-13T05:03:46;23.40;51.30
56300;DHT22;42209;6.376;-10.782;2023-02-13T05:06:14;23.50;51.80
56300;DHT22;42209;6.376;-10.782;2023-02-13T05:08:42;23.60;51.00
56300;DHT22;42209;6.376;-10.782;2023-02-13T05:11:10;23.40;47.20
56300;DHT22;42209;6.376;-10.782;2023-02-13T05:13:39;23.10;46.40
56300;DHT22;42209;6.376;-10.782;2023-02-13T05:16:07;23.10;50.30
56300;DHT22;42209;6.376;-10.782;2023-02-13T05:18:35;23.20;54.20
56300;DHT22;42209;6.376;-10.782;2023-02-13T05:21:04;23.30;54.80
56300;DHT22;42209;6.376;-10.782;2023-02-13T05:23:32;23.50;54.50
56300;DHT22;42209;6.376;-10.782;2023-02-13T05:26:01;23.70;52.60
56300;DHT22;42209;6.376;-10.782;2023-02-13T05:28:29;23.50;49.00
56300;DHT22;42209;6.376;-10.782;2023-02-13T05:30:57;23.30;47.60
56300;DHT22;42209;6.376;-10.782;2023-02-13T05:33:26;23.10;46.70
56300;DHT22;42209;6.376;-10.782;2023-02-13T05:35:54;22.90;45.60
56300;DHT22;42209;6.376;-10.782;2023-02-13T05:38:22;22.80;44.70
56300;DHT22;42209;6.376;-10.782;2023-02-13T05:40:51;22.70;44.10
56300;DHT22;42209;6.376;-10.782;2023-02-13T05:43:19;22.70;43.30
56300;DHT22;42209;6.376;-10.782;2023-02-13T05:45:47;22.60;42.60
56300;DHT22;42209;6.376;-10.782;2023-02-13T05:48:16;22.60;42.00
56300;DHT22;42209;6.376;-10.782;2023-02-13T05:50:46;22.60;41.10
56300;DHT22;42209;6.376;-10.782;2023-02-13T05:53:14;22.50;41.10
56300;DHT22;42209;6.376;-10.782;2023-02-13T05:55:42;22.50;40.80
56300;DHT22;42209;6.376;-10.782;2023-02-13T05:58:10;22.50;40.80
56300;DHT22;42209;6.376;-10.782;2023-02-13T06:00:38;22.50;40.20
56300;DHT22;42209;6.376;-10.782;2023-02-13T06:03:07;22.50;40.00
56300;DHT22;42209;6.376;-10.782;2023-02-13T06:05:35;22.50;40.00
56300;DHT22;42209;6.376;-10.782;2023-02-13T06:08:03;22.60;39.10
56300;DHT22;42209;6.376;-10.782;2023-02-13T06:10:32;22.50;38.10
56300;DHT22;42209;6.376;-10.782;2023-02-13T06:13:00;22.60;38.10
56300;DHT22;42209;6.376;-10.782;2023-02-13T06:15:29;22.60;40.70
56300;DHT22;42209;6.376;-10.782;2023-02-13T06:17:57;22.80;44.30
56300;DHT22;42209;6.376;-10.782;2023-02-13T06:20:25;22.90;46.90
56300;DHT22;42209;6.376;-10.782;2023-02-13T06:22:54;23.10;48.80
56300;DHT22;42209;6.376;-10.782;2023-02-13T06:25:22;23.10;50.40
56300;DHT22;42209;6.376;-10.782;2023-02-13T06:27:51;23.20;51.70
56300;DHT22;42209;6.376;-10.782;2023-02-13T06:30:19;23.40;52.50
56300;DHT22;42209;6.376;-10.782;2023-02-13T06:32:47;23.50;53.00
56300;DHT22;42209;6.376;-10.782;2023-02-13T06:35:16;23.60;52.60
56300;DHT22;42209;6.376;-10.782;2023-02-13T06:37:44;23.50;48.80
56300;DHT22;42209;6.376;-10.782;2023-02-13T06:40:13;23.20;47.20
56300;DHT22;42209;6.376;-10.782;2023-02-13T06:42:43;23.10;50.70
56300;DHT22;42209;6.376;-10.782;2023-02-13T06:45:12;23.20;54.60
56300;DHT22;42209;6.376;-10.782;2023-02-13T06:47:45;23.30;56.00
56300;DHT22;42209;6.376;-10.782;2023-02-13T06:50:15;23.40;55.30
56300;DHT22;42209;6.376;-10.782;2023-02-13T06:52:48;23.60;54.80
56300;DHT22;42209;6.376;-10.782;2023-02-13T06:55:17;23.50;50.40
56300;DHT22;42209;6.376;-10.782;2023-02-13T06:57:46;23.30;48.80
56300;DHT22;42209;6.376;-10.782;2023-02-13T07:00:14;23.00;47.60
56300;DHT22;42209;6.376;-10.782;2023-02-13T07:02:45;22.90;46.80
56300;DHT22;42209;6.376;-10.782;2023-02-13T07:05:14;22.70;45.90
56300;DHT22;42209;6.376;-10.782;2023-02-13T07:07:42;22.70;44.80
56300;DHT22;42209;6.376;-10.782;2023-02-13T07:10:12;22.60;44.10
56300;DHT22;42209;6.376;-10.782;2023-02-13T07:12:40;22.50;43.60
56300;DHT22;42209;6.376;-10.782;2023-02-13T07:15:10;22.60;45.80
56300;DHT22;42209;6.376;-10.782;2023-02-13T07:17:39;22.60;45.50
56300;DHT22;42209;6.376;-10.782;2023-02-13T07:20:08;22.60;44.60
56300;DHT22;42209;6.376;-10.782;2023-02-13T07:22:36;22.50;43.80
56300;DHT22;42209;6.376;-10.782;2023-02-13T07:25:04;22.40;43.20
56300;DHT22;42209;6.376;-10.782;2023-02-13T07:27:33;22.40;44.30
56300;DHT22;42209;6.376;-10.782;2023-02-13T07:30:01;22.60;48.30
56300;DHT22;42209;6.376;-10.782;2023-02-13T07:32:30;22.90;52.60
56300;DHT22;42209;6.376;-10.782;2023-02-13T07:34:58;23.10;57.40
56300;DHT22;42209;6.376;-10.782;2023-02-13T07:37:30;23.20;60.30
56300;DHT22;42209;6.376;-10.782;2023-02-13T07:39:58;23.30;62.80
56300;DHT22;42209;6.376;-10.782;2023-02-13T07:42:27;23.40;63.90
56300;DHT22;42209;6.376;-10.782;2023-02-13T07:44:55;23.50;64.40
56300;DHT22;42209;6.376;-10.782;2023-02-13T07:47:23;23.60;65.60
56300;DHT22;42209;6.376;-10.782;2023-02-13T07:49:51;23.70;65.30
56300;DHT22;42209;6.376;-10.782;2023-02-13T07:52:20;23.60;58.10
56300;DHT22;42209;6.376;-10.782;2023-02-13T07:54:48;23.30;55.60
56300;DHT22;42209;6.376;-10.782;2023-02-13T07:57:16;23.10;53.70
56300;DHT22;42209;6.376;-10.782;2023-02-13T07:59:45;22.90;52.40
56300;DHT22;42209;6.376;-10.782;2023-02-13T08:02:13;22.80;51.00
56300;DHT22;42209;6.376;-10.782;2023-02-13T08:04:42;22.70;49.60
56300;DHT22;42209;6.376;-10.782;2023-02-13T08:07:11;22.70;48.40
56300;DHT22;42209;6.376;-10.782;2023-02-13T08:09:39;22.60;47.60
56300;DHT22;42209;6.376;-10.782;2023-02-13T08:12:08;22.60;47.10
56300;DHT22;42209;6.376;-10.782;2023-02-13T08:14:37;22.60;46.50
56300;DHT22;42209;6.376;-10.782;2023-02-13T08:17:05;22.60;46.10
56300;DHT22;42209;6.376;-10.782;2023-02-13T08:19:33;22.50;45.40
56300;DHT22;42209;6.376;-10.782;2023-02-13T08:22:02;22.60;45.40
56300;DHT22;42209;6.376;-10.782;2023-02-13T08:24:31;22.60;44.60
56300;DHT22;42209;6.376;-10.782;2023-02-13T08:26:59;22.60;44.40
56300;DHT22;42209;6.376;-10.782;2023-02-13T08:29:28;22.60;43.30
56300;DHT22;42209;6.376;-10.782;2023-02-13T08:31:56;22.70;43.20
56300;DHT22;42209;6.376;-10.782;2023-02-13T08:34:24;22.80;44.70
56300;DHT22;42209;6.376;-10.782;2023-02-13T08:36:52;22.80;46.00
56300;DHT22;42209;6.376;-10.782;2023-02-13T08:39:21;22.90;49.90
56300;DHT22;42209;6.376;-10.782;2023-02-13T08:41:49;23.10;52.70
56300;DHT22;42209;6.376;-10.782;2023-02-13T08:44:17;23.10;55.10
56300;DHT22;42209;6.376;-10.782;2023-02-13T08:46:46;23.20;56.90
56300;DHT22;42209;6.376;-10.782;2023-02-13T08:49:14;23.30;58.10
56300;DHT22;42209;6.376;-10.782;2023-02-13T08:51:42;23.40;59.50
56300;DHT22;42209;6.376;-10.782;2023-02-13T08:54:11;23.50;59.70
56300;DHT22;42209;6.376;-10.782;2023-02-13T08:56:41;23.60;57.70
56300;DHT22;42209;6.376;-10.782;2023-02-13T08:59:10;23.40;54.10
56300;DHT22;42209;6.376;-10.782;2023-02-13T09:01:38;23.10;52.60
56300;DHT22;42209;6.376;-10.782;2023-02-13T09:04:06;23.10;57.80
56300;DHT22;42209;6.376;-10.782;2023-02-13T09:06:34;23.20;61.40
56300;DHT22;42209;6.376;-10.782;2023-02-13T09:09:06;23.30;62.70
56300;DHT22;42209;6.376;-10.782;2023-02-13T09:11:35;23.40;62.70
56300;DHT22;42209;6.376;-10.782;2023-02-13T09:14:04;23.60;63.30
56300;DHT22;42209;6.376;-10.782;2023-02-13T09:16:32;23.60;58.60
56300;DHT22;42209;6.376;-10.782;2023-02-13T09:19:00;23.40;55.90
56300;DHT22;42209;6.376;-10.782;2023-02-13T09:21:28;23.30;54.40
56300;DHT22;42209;6.376;-10.782;2023-02-13T09:23:57;23.10;53.20
56300;DHT22;42209;6.376;-10.782;2023-02-13T09:26:25;23.00;51.90
56300;DHT22;42209;6.376;-10.782;2023-02-13T09:28:53;22.90;50.50
56300;DHT22;42209;6.376;-10.782;2023-02-13T09:31:23;22.80;49.30
56300;DHT22;42209;6.376;-10.782;2023-02-13T09:33:54;22.80;48.70
56300;DHT22;42209;6.376;-10.782;2023-02-13T09:36:23;22.80;48.00
56300;DHT22;42209;6.376;-10.782;2023-02-13T09:38:53;22.70;47.10
56300;DHT22;42209;6.376;-10.782;2023-02-13T09:41:25;22.70;46.70
56300;DHT22;42209;6.376;-10.782;2023-02-13T09:46:41;22.60;45.10
56300;DHT22;42209;6.376;-10.782;2023-02-13T09:49:16;22.60;44.60
56300;DHT22;42209;6.376;-10.782;2023-02-13T09:51:52;22.50;44.20
56300;DHT22;42209;6.376;-10.782;2023-02-13T09:54:21;22.60;43.80
56300;DHT22;42209;6.376;-10.782;2023-02-13T09:57:02;22.50;43.70
56300;DHT22;42209;6.376;-10.782;2023-02-13T10:00:06;22.50;43.80
56300;DHT22;42209;6.376;-10.782;2023-02-13T10:05:46;22.40;42.50
56300;DHT22;42209;6.376;-10.782;2023-02-13T10:08:35;22.50;41.90
56300;DHT22;42209;6.376;-10.782;2023-02-13T10:11:11;22.50;41.80
56300;DHT22;42209;6.376;-10.782;2023-02-13T10:14:09;22.40;41.50
56300;DHT22;42209;6.376;-10.782;2023-02-13T10:17:04;22.40;41.30
56300;DHT22;42209;6.376;-10.782;2023-02-13T10:20:01;22.40;41.00
56300;DHT22;42209;6.376;-10.782;2023-02-13T10:22:43;22.40;40.90
56300;DHT22;42209;6.376;-10.782;2023-02-13T10:25:34;22.40;40.60
56300;DHT22;42209;6.376;-10.782;2023-02-13T10:28:12;22.30;40.50
56300;DHT22;42209;6.376;-10.782;2023-02-13T10:30:54;22.30;40.40
56300;DHT22;42209;6.376;-10.782;2023-02-13T10:36:22;22.40;39.90
56300;DHT22;42209;6.376;-10.782;2023-02-13T10:39:21;22.40;40.00
56300;DHT22;42209;6.376;-10.782;2023-02-13T10:41:56;22.40;40.20
56300;DHT22;42209;6.376;-10.782;2023-02-13T11:01:59;22.70;40.50
56300;DHT22;42209;6.376;-10.782;2023-02-13T11:04:30;22.70;42.60
56300;DHT22;42209;6.376;-10.782;2023-02-13T11:07:03;22.80;46.10
56300;DHT22;42209;6.376;-10.782;2023-02-13T11:09:41;22.90;49.50
56300;DHT22;42209;6.376;-10.782;2023-02-13T11:12:31;23.10;52.10
56300;DHT22;42209;6.376;-10.782;2023-02-13T11:15:06;23.10;54.10
56300;DHT22;42209;6.376;-10.782;2023-02-13T11:17:38;23.30;55.10
56300;DHT22;42209;6.376;-10.782;2023-02-13T11:22:55;23.50;55.90
56300;DHT22;42209;6.376;-10.782;2023-02-13T11:25:25;23.40;51.20
56300;DHT22;42209;6.376;-10.782;2023-02-13T11:28:12;23.20;49.30
56300;DHT22;42209;6.376;-10.782;2023-02-13T11:30:42;23.10;51.60
56300;DHT22;42209;6.376;-10.782;2023-02-13T11:35:45;23.30;57.60
56300;DHT22;42209;6.376;-10.782;2023-02-13T11:40:46;23.60;55.50
56300;DHT22;42209;6.376;-10.782;2023-02-13T11:46:22;23.20;50.60
56300;DHT22;42209;6.376;-10.782;2023-02-13T11:49:01;23.10;49.00
56300;DHT22;42209;6.376;-10.782;2023-02-13T11:51:44;22.90;48.00
56300;DHT22;42209;6.376;-10.782;2023-02-13T11:54:38;22.80;47.30
56300;DHT22;42209;6.376;-10.782;2023-02-13T11:59:52;22.70;45.50
56300;DHT22;42209;6.376;-10.782;2023-02-13T12:02:29;22.70;44.90
56300;DHT22;42209;6.376;-10.782;2023-02-13T12:05:19;22.70;44.40
56300;DHT22;42209;6.376;-10.782;2023-02-13T12:07:49;22.70;43.90
56300;DHT22;42209;6.376;-10.782;2023-02-13T12:27:36;23.20;46.90
56300;DHT22;42209;6.376;-10.782;2023-02-13T12:32:49;23.10;44.40
56300;DHT22;42209;6.376;-10.782;2023-02-13T12:43:56;22.70;42.70
56300;DHT22;42209;6.376;-10.782;2023-02-13T12:50:45;22.70;42.70
56300;DHT22;42209;6.376;-10.782;2023-02-13T12:53:37;22.70;42.10
56300;DHT22;42209;6.376;-10.782;2023-02-13T12:56:27;22.60;41.80
56300;DHT22;42209;6.376;-10.782;2023-02-13T12:59:23;22.60;41.80
56300;DHT22;42209;6.376;-10.782;2023-02-13T13:21:33;22.80;40.60
56300;DHT22;42209;6.376;-10.782;2023-02-13T13:27:00;22.80;40.20
56300;DHT22;42209;6.376;-10.782;2023-02-13T13:30:27;22.90;40.30
56300;DHT22;42209;6.376;-10.782;2023-02-13T13:35:32;22.90;41.60
56300;DHT22;42209;6.376;-10.782;2023-02-13T13:38:11;22.80;41.20
56300;DHT22;42209;6.376;-10.782;2023-02-13T13:41:15;22.90;44.10
56300;DHT22;42209;6.376;-10.782;2023-02-13T13:46:58;23.30;53.00
56300;DHT22;42209;6.376;-10.782;2023-02-13T13:50:11;23.40;55.20
56300;DHT22;42209;6.376;-10.782;2023-02-13T13:52:39;23.60;56.10
56300;DHT22;42209;6.376;-10.782;2023-02-13T13:58:45;23.50;50.40
56300;DHT22;42209;6.376;-10.782;2023-02-13T14:01:20;23.30;48.50
56300;DHT22;42209;6.376;-10.782;2023-02-13T14:03:57;23.20;47.80
56300;DHT22;42209;6.376;-10.782;2023-02-13T14:09:39;23.00;45.90
56300;DHT22;42209;6.376;-10.782;2023-02-13T14:14:55;22.90;45.30
56300;DHT22;42209;6.376;-10.782;2023-02-13T14:20:29;22.90;44.10
56300;DHT22;42209;6.376;-10.782;2023-02-13T14:23:32;22.90;43.60
56300;DHT22;42209;6.376;-10.782;2023-02-13T14:31:36;22.90;43.00
56300;DHT22;42209;6.376;-10.782;2023-02-13T14:36:39;22.80;42.70
56300;DHT22;42209;6.376;-10.782;2023-02-13T14:39:27;22.80;42.60
56300;DHT22;42209;6.376;-10.782;2023-02-13T14:41:59;22.80;42.70
56300;DHT22;42209;6.376;-10.782;2023-02-13T14:47:28;22.90;42.40
56300;DHT22;42209;6.376;-10.782;2023-02-13T14:49:59;22.80;41.80
56300;DHT22;42209;6.376;-10.782;2023-02-13T14:52:36;22.80;41.70
56300;DHT22;42209;6.376;-10.782;2023-02-13T14:55:34;22.80;41.80
56300;DHT22;42209;6.376;-10.782;2023-02-13T14:58:29;22.70;41.70
56300;DHT22;42209;6.376;-10.782;2023-02-13T15:01:05;22.80;42.00
56300;DHT22;42209;6.376;-10.782;2023-02-13T15:03:46;22.80;42.00
56300;DHT22;42209;6.376;-10.782;2023-02-13T15:06:28;22.80;42.00
56300;DHT22;42209;6.376;-10.782;2023-02-13T15:09:00;22.80;41.60
56300;DHT22;42209;6.376;-10.782;2023-02-13T15:11:37;22.80;41.60
56300;DHT22;42209;6.376;-10.782;2023-02-13T15:14:27;22.90;41.30
56300;DHT22;42209;6.376;-10.782;2023-02-13T15:19:29;22.90;41.10
56300;DHT22;42209;6.376;-10.782;2023-02-13T15:22:06;22.90;41.20
56300;DHT22;42209;6.376;-10.782;2023-02-13T15:24:44;22.80;40.60
56300;DHT22;42209;6.376;-10.782;2023-02-13T15:27:22;22.80;40.60
56300;DHT22;42209;6.376;-10.782;2023-02-13T15:29:53;22.80;40.50
56300;DHT22;42209;6.376;-10.782;2023-02-13T15:32:30;22.90;40.40
56300;DHT22;42209;6.376;-10.782;2023-02-13T15:34:59;22.80;40.00
56300;DHT22;42209;6.376;-10.782;2023-02-13T15:37:29;22.80;40.10
56300;DHT22;42209;6.376;-10.782;2023-02-13T15:40:16;22.80;40.20
56300;DHT22;42209;6.376;-10.782;2023-02-13T15:42:48;22.90;40.20
56300;DHT22;42209;6.376;-10.782;2023-02-13T15:45:17;22.90;39.90
56300;DHT22;42209;6.376;-10.782;2023-02-13T15:47:46;22.90;40.30
56300;DHT22;42209;6.376;-10.782;2023-02-13T15:52:50;22.90;39.70
56300;DHT22;42209;6.376;-10.782;2023-02-13T15:57:49;22.90;39.80
56300;DHT22;42209;6.376;-10.782;2023-02-13T16:00:39;22.90;39.30
56300;DHT22;42209;6.376;-10.782;2023-02-13T16:03:15;22.90;39.40
56300;DHT22;42209;6.376;-10.782;2023-02-13T16:05:45;23.00;40.00
56300;DHT22;42209;6.376;-10.782;2023-02-13T16:08:32;22.90;39.60
56300;DHT22;42209;6.376;-10.782;2023-02-13T16:11:20;22.90;39.30
56300;DHT22;42209;6.376;-10.782;2023-02-13T16:16:46;23.00;40.50
56300;DHT22;42209;6.376;-10.782;2023-02-13T16:21:55;23.00;40.00
56300;DHT22;42209;6.376;-10.782;2023-02-13T16:24:26;23.00;39.80
56300;DHT22;42209;6.376;-10.782;2023-02-13T16:26:55;23.10;39.90
56300;DHT22;42209;6.376;-10.782;2023-02-13T16:29:23;23.10;39.50
56300;DHT22;42209;6.376;-10.782;2023-02-13T16:31:53;23.00;39.20
56300;DHT22;42209;6.376;-10.782;2023-02-13T16:34:30;23.10;39.30
56300;DHT22;42209;6.376;-10.782;2023-02-13T16:36:59;23.10;38.80
56300;DHT22;42209;6.376;-10.782;2023-02-13T16:39:30;23.10;38.60
56300;DHT22;42209;6.376;-10.782;2023-02-13T16:41:59;23.10;38.80
56300;DHT22;42209;6.376;-10.782;2023-02-13T16:44:30;23.10;38.70
56300;DHT22;42209;6.376;-10.782;2023-02-13T16:47:01;23.10;38.60
56300;DHT22;42209;6.376;-10.782;2023-02-13T16:49:36;23.10;38.40
56300;DHT22;42209;6.376;-10.782;2023-02-13T16:52:17;23.10;38.00
56300;DHT22;42209;6.376;-10.782;2023-02-13T16:54:56;23.10;38.10
56300;DHT22;42209;6.376;-10.782;2023-02-13T16:57:33;23.00;38.00
56300;DHT22;42209;6.376;-10.782;2023-02-13T17:00:05;23.00;38.10
56300;DHT22;42209;6.376;-10.782;2023-02-13T17:02:36;22.90;38.00
56300;DHT22;42209;6.376;-10.782;2023-02-13T17:16:56;24.30;40.40
56300;DHT22;42209;6.376;-10.782;2023-02-13T17:19:24;24.40;44.40
56300;DHT22;42209;6.376;-10.782;2023-02-13T17:21:53;24.20;44.80
56300;DHT22;42209;6.376;-10.782;2023-02-13T17:24:21;24.00;43.10
56300;DHT22;42209;6.376;-10.782;2023-02-13T17:26:49;23.70;42.10
56300;DHT22;42209;6.376;-10.782;2023-02-13T17:29:18;23.60;41.50
56300;DHT22;42209;6.376;-10.782;2023-02-13T17:31:46;23.40;41.10
56300;DHT22;42209;6.376;-10.782;2023-02-13T17:34:16;23.40;40.50
56300;DHT22;42209;6.376;-10.782;2023-02-13T17:36:44;23.30;40.50
56300;DHT22;42209;6.376;-10.782;2023-02-13T17:39:12;23.30;39.80
56300;DHT22;42209;6.376;-10.782;2023-02-13T17:41:41;23.20;39.60
56300;DHT22;42209;6.376;-10.782;2023-02-13T17:44:12;23.30;39.80
56300;DHT22;42209;6.376;-10.782;2023-02-13T17:46:41;23.20;39.60
56300;DHT22;42209;6.376;-10.782;2023-02-13T17:49:09;23.30;39.20
56300;DHT22;42209;6.376;-10.782;2023-02-13T17:51:38;23.30;39.10
56300;DHT22;42209;6.376;-10.782;2023-02-13T17:54:09;23.30;38.50
56300;DHT22;42209;6.376;-10.782;2023-02-13T17:56:38;23.20;38.20
56300;DHT22;42209;6.376;-10.782;2023-02-13T17:59:06;23.30;38.10
56300;DHT22;42209;6.376;-10.782;2023-02-13T18:01:34;23.30;37.60
56300;DHT22;42209;6.376;-10.782;2023-02-13T18:04:03;23.40;37.50
56300;DHT22;42209;6.376;-10.782;2023-02-13T18:06:57;23.40;36.50
56300;DHT22;42209;6.376;-10.782;2023-02-13T18:09:26;23.50;37.70
56300;DHT22;42209;6.376;-10.782;2023-02-13T18:11:54;23.50;39.20
56300;DHT22;42209;6.376;-10.782;2023-02-13T18:14:32;23.40;38.20
56300;DHT22;42209;6.376;-10.782;2023-02-13T18:17:01;23.30;37.80
56300;DHT22;42209;6.376;-10.782;2023-02-13T18:19:29;23.20;37.90
56300;DHT22;42209;6.376;-10.782;2023-02-13T18:21:57;23.20;37.60
56300;DHT22;42209;6.376;-10.782;2023-02-13T18:24:30;23.20;37.50
56300;DHT22;42209;6.376;-10.782;2023-02-13T18:26:59;23.20;37.00
56300;DHT22;42209;6.376;-10.782;2023-02-13T18:29:27;23.20;37.20
56300;DHT22;42209;6.376;-10.782;2023-02-13T18:31:55;23.20;36.80
56300;DHT22;42209;6.376;-10.782;2023-02-13T18:34:24;23.20;36.70
56300;DHT22;42209;6.376;-10.782;2023-02-13T18:36:52;23.30;36.60
56300;DHT22;42209;6.376;-10.782;2023-02-13T18:39:20;23.30;36.00